Time;durP1;ratioP1;P1;durP2;ratioP2;P2;SDS_P1;SDS_P2;PMS_P1;PMS_P2;Temp;Humidity;BMP_temperature;BMP_pressure;BME280_temperature;BME280_humidity;BME280_pressure;Samples;Min_cycle;Max_cycle;Signal;HPM_P1;HPM_P2
2022/12/26 00:01:47;;;;;;;7.97;5.50;;;12.90;70.80;;;;;;5091706;28;20446;-64
2022/12/26 00:04:15;;;;;;;6.27;5.67;;;12.90;71.00;;;;;;5091099;28;20454;-64
2022/12/26 00:06:44;;;;;;;6.20;5.60;;;12.90;70.50;;;;;;5086445;28;20526;-64
2022/12/26 00:09:10;;;;;;;7.00;5.70;;;12.90;70.30;;;;;;5071726;28;20451;-64
2022/12/26 00:11:38;;;;;;;6.10;5.50;;;12.80;70.60;;;;;;5076163;28;20868;-64
2022/12/26 00:14:07;;;;;;;5.83;5.23;;;12.90;70.80;;;;;;5094698;28;20862;-64
2022/12/26 00:16:35;;;;;;;6.10;5.50;;;12.90;70.60;;;;;;5094514;28;20478;-64
2022/12/26 00:19:02;;;;;;;6.03;5.53;;;12.90;70.40;;;;;;5094716;28;20533;-65
2022/12/26 00:21:29;;;;;;;7.33;5.53;;;12.80;70.20;;;;;;5075903;28;20461;-65
2022/12/26 00:23:59;;;;;;;7.20;5.53;;;12.80;70.20;;;;;;5087222;28;20451;-65
2022/12/26 00:26:28;;;;;;;8.30;5.50;;;12.80;70.50;;;;;;5095092;28;20537;-65
2022/12/26 00:28:56;;;;;;;6.60;5.40;;;12.80;70.20;;;;;;5095248;28;20857;-65
2022/12/26 00:31:25;;;;;;;6.27;4.93;;;12.80;70.50;;;;;;5090476;28;20534;-64
2022/12/26 00:33:52;;;;;;;6.03;4.83;;;12.80;71.30;;;;;;5089238;28;20446;-65
2022/12/26 00:36:21;;;;;;;4.97;4.47;;;12.90;71.20;;;;;;5089757;28;20566;-65
2022/12/26 00:38:49;;;;;;;5.10;4.60;;;12.90;71.40;;;;;;5074638;28;20775;-64
2022/12/26 00:41:20;;;;;;;4.87;4.10;;;13.00;71.90;;;;;;5076581;28;20447;-64
2022/12/26 00:43:47;;;;;;;5.47;4.40;;;13.00;72.00;;;;;;5094429;28;20469;-64
2022/12/26 00:46:14;;;;;;;4.90;4.23;;;13.00;71.90;;;;;;5093412;28;21040;-64
2022/12/26 00:48:41;;;;;;;5.60;3.73;;;13.20;71.80;;;;;;5094199;28;20454;-64
2022/12/26 00:51:08;;;;;;;5.17;3.70;;;13.20;71.80;;;;;;5093246;28;20457;-65
2022/12/26 00:53:36;;;;;;;5.07;3.63;;;13.30;71.80;;;;;;5092576;28;20453;-65
2022/12/26 00:56:03;;;;;;;4.07;3.67;;;13.40;71.80;;;;;;5093463;28;20565;-64
2022/12/26 00:58:31;;;;;;;4.67;3.80;;;13.50;72.80;;;;;;5093872;28;20456;-64
2022/12/26 01:01:06;;;;;;;3.97;3.07;;;13.50;72.90;;;;;;5093573;28;20463;-64
2022/12/26 01:03:33;;;;;;;2.80;2.60;;;13.60;73.80;;;;;;5083129;28;20922;-65
2022/12/26 01:06:03;;;;;;;3.23;2.63;;;13.80;75.10;;;;;;5093425;28;20534;-63
2022/12/26 01:08:30;;;;;;;2.90;2.47;;;13.90;75.70;;;;;;5094412;28;20438;-64
2022/12/26 01:10:58;;;;;;;3.27;2.80;;;14.00;75.10;;;;;;5093441;28;20525;-64
2022/12/26 01:13:25;;;;;;;3.20;2.90;;;14.10;75.00;;;;;;5073510;28;20969;-64
2022/12/26 01:15:54;;;;;;;3.37;2.63;;;14.30;74.60;;;;;;5073699;28;20925;-64
2022/12/26 01:18:21;;;;;;;5.23;2.90;;;14.40;74.30;;;;;;5072864;28;20448;-64
2022/12/26 01:20:48;;;;;;;3.67;2.80;;;14.60;73.70;;;;;;5080505;28;20457;-64
2022/12/26 01:23:17;;;;;;;3.00;2.70;;;14.60;73.30;;;;;;5093003;28;20446;-64
2022/12/26 01:25:44;;;;;;;3.40;2.60;;;14.70;72.70;;;;;;5088406;28;20447;-65
2022/12/26 01:28:11;;;;;;;3.20;2.90;;;14.90;72.90;;;;;;5088482;28;20450;-65
2022/12/26 01:30:38;;;;;;;3.97;2.47;;;15.00;72.20;;;;;;5092804;28;20537;-65
2022/12/26 01:33:06;;;;;;;3.10;2.80;;;15.10;71.70;;;;;;5076151;28;20459;-64
2022/12/26 01:35:33;;;;;;;2.40;2.20;;;15.20;71.10;;;;;;5091882;28;20533;-64
2022/12/26 01:38:00;;;;;;;3.93;2.63;;;15.20;70.70;;;;;;5093332;28;20454;-65
2022/12/26 01:40:27;;;;;;;3.47;2.50;;;15.30;70.40;;;;;;5093272;28;20475;-65
2022/12/26 01:42:54;;;;;;;2.53;2.30;;;15.40;70.40;;;;;;5092571;28;20449;-65
2022/12/26 01:45:27;;;;;;;2.43;2.23;;;15.50;69.90;;;;;;5092781;28;20486;-65
2022/12/26 01:47:58;;;;;;;2.90;2.60;;;15.60;69.50;;;;;;5092899;28;20545;-65
2022/12/26 01:50:32;;;;;;;4.07;2.23;;;15.70;69.20;;;;;;5092617;28;20949;-65
2022/12/26 01:53:01;;;;;;;3.03;2.60;;;15.70;68.70;;;;;;5092301;28;20454;-65
2022/12/26 01:55:31;;;;;;;4.50;2.97;;;15.80;68.20;;;;;;5093015;28;20918;-65
2022/12/26 01:58:02;;;;;;;2.60;2.40;;;15.80;68.20;;;;;;5092622;28;20455;-65
2022/12/26 02:00:29;;;;;;;2.27;1.90;;;15.80;67.60;;;;;;5093238;28;20470;-65
2022/12/26 02:05:43;;;;;;;2.40;2.03;;;15.80;67.50;;;;;;5092959;28;20461;-65
2022/12/26 02:08:14;;;;;;;2.63;2.43;;;16.00;67.20;;;;;;5092276;28;20442;-64
2022/12/26 02:10:48;;;;;;;2.73;2.30;;;16.00;67.60;;;;;;5092470;28;20439;-65
2022/12/26 02:13:16;;;;;;;2.80;2.10;;;15.90;66.80;;;;;;5086340;28;20518;-65
2022/12/26 02:15:43;;;;;;;2.83;2.40;;;16.00;66.80;;;;;;5092779;28;20490;-65
2022/12/26 02:18:10;;;;;;;3.00;2.60;;;16.00;66.60;;;;;;5092237;28;20447;-64
2022/12/26 02:20:48;;;;;;;2.83;2.40;;;16.00;66.40;;;;;;5091373;28;20450;-65
2022/12/26 02:23:54;;;;;;;3.80;2.60;;;16.10;66.40;;;;;;5087518;28;20492;-64
2022/12/26 02:26:52;;;;;;;2.87;2.60;;;16.00;66.00;;;;;;5068058;28;20446;-65
2022/12/26 02:29:57;;;;;;;2.97;2.67;;;16.10;66.20;;;;;;5091205;28;20911;-65
2022/12/26 02:32:33;;;;;;;2.83;2.50;;;16.00;65.80;;;;;;5083449;28;20443;-65
2022/12/26 02:35:08;;;;;;;3.27;2.40;;;16.00;65.80;;;;;;5091837;28;20426;-65
2022/12/26 02:37:48;;;;;;;3.00;2.17;;;16.10;65.80;;;;;;5086875;28;20462;-65
2022/12/26 02:40:42;;;;;;;2.40;2.20;;;16.20;65.80;;;;;;5092073;28;20553;-65
2022/12/26 02:43:20;;;;;;;4.17;2.50;;;16.10;65.50;;;;;;5076998;28;20443;-65
2022/12/26 02:48:45;;;;;;;2.50;2.23;;;16.10;65.80;;;;;;5092140;28;20792;-65
2022/12/26 03:14:00;;;;;;;2.60;2.40;;;16.30;64.90;;;;;;5092085;28;20752;-65
2022/12/26 03:19:15;;;;;;;2.70;2.50;;;16.30;65.40;;;;;;5088432;28;20458;-65
2022/12/26 03:21:45;;;;;;;3.67;2.33;;;16.30;65.20;;;;;;5076316;28;20454;-65
2022/12/26 03:24:21;;;;;;;3.00;2.50;;;16.30;65.20;;;;;;5091602;28;20875;-65
2022/12/26 03:26:51;;;;;;;2.47;2.27;;;16.30;65.30;;;;;;5090139;28;20447;-65
2022/12/26 03:32:07;;;;;;;3.53;2.50;;;16.30;65.80;;;;;;5072142;28;20515;-65
2022/12/26 03:34:38;;;;;;;2.67;2.30;;;16.30;65.20;;;;;;5078121;28;20445;-65
2022/12/26 03:37:27;;;;;;;4.27;2.30;;;16.40;65.00;;;;;;5091940;28;20958;-65
2022/12/26 04:19:57;;;;;;;2.70;2.40;;;16.40;63.60;;;;;;5094624;28;20433;-68
2022/12/26 04:45:04;;;;;;;5.67;2.40;;;16.60;62.70;;;;;;5090651;28;20578;-68
2022/12/26 04:47:31;;;;;;;3.70;2.33;;;16.60;62.70;;;;;;5093055;28;20449;-68
2022/12/26 04:50:13;;;;;;;2.40;2.20;;;16.70;62.60;;;;;;5093799;28;20496;-68
2022/12/26 04:53:00;;;;;;;2.40;2.20;;;16.60;62.40;;;;;;5081989;28;20533;-69
2022/12/26 04:55:30;;;;;;;3.67;2.23;;;16.70;62.60;;;;;;5089923;28;20782;-68
2022/12/26 04:57:58;;;;;;;3.27;2.53;;;16.80;63.00;;;;;;5093591;28;20531;-68
2022/12/26 05:00:28;;;;;;;2.40;2.20;;;16.70;62.20;;;;;;5093463;28;21068;-68
2022/12/26 05:11:26;;;;;;;2.63;2.37;;;16.80;64.10;;;;;;5093254;28;20538;-68
2022/12/26 05:13:54;;;;;;;3.07;2.27;;;16.60;64.90;;;;;;5092455;28;20827;-68
2022/12/26 05:30:17;;;;;;;1.90;1.80;;;16.50;67.60;;;;;;5074671;28;20407;-69
2022/12/26 05:35:29;;;;;;;2.83;2.50;;;16.60;67.80;;;;;;5091995;28;20445;-68
2022/12/26 05:37:56;;;;;;;2.90;2.30;;;16.60;67.70;;;;;;5092929;28;20513;-68
2022/12/26 05:40:23;;;;;;;3.13;2.53;;;16.50;67.70;;;;;;5085400;28;21030;-68
2022/12/26 05:42:50;;;;;;;3.90;2.33;;;16.50;67.90;;;;;;5088381;28;20464;-68
2022/12/26 05:45:17;;;;;;;2.50;2.30;;;16.50;68.20;;;;;;5076787;28;20860;-69
2022/12/26 05:47:45;;;;;;;2.60;2.30;;;16.40;68.20;;;;;;5092114;28;20529;-69
2022/12/26 05:50:12;;;;;;;3.10;2.27;;;16.60;68.50;;;;;;5092495;28;20450;-68
2022/12/26 05:52:39;;;;;;;2.30;2.10;;;16.50;68.20;;;;;;5092420;28;20446;-68
2022/12/26 05:55:07;;;;;;;2.40;2.20;;;16.40;68.80;;;;;;5092235;28;20454;-68
2022/12/26 05:57:33;;;;;;;3.30;2.43;;;16.40;68.70;;;;;;5091795;28;20510;-68
2022/12/26 06:00:00;;;;;;;2.90;2.40;;;16.40;68.80;;;;;;5092928;28;20471;-69
2022/12/26 06:02:29;;;;;;;2.80;2.30;;;16.40;68.70;;;;;;5092037;28;20934;-69
2022/12/26 06:04:57;;;;;;;3.03;2.33;;;16.30;68.70;;;;;;5091802;28;20457;-68
2022/12/26 06:07:24;;;;;;;3.23;2.60;;;16.20;68.60;;;;;;5091630;28;20471;-68
2022/12/26 06:09:51;;;;;;;3.33;2.30;;;16.20;68.60;;;;;;5092457;28;20443;-68
2022/12/26 06:12:18;;;;;;;3.10;2.80;;;16.20;69.00;;;;;;5092088;28;20451;-68
2022/12/26 06:14:45;;;;;;;2.87;2.57;;;16.10;69.20;;;;;;5092051;28;20450;-68
2022/12/26 06:17:13;;;;;;;2.87;2.60;;;16.10;69.40;;;;;;5092011;28;20490;-69
2022/12/26 06:19:40;;;;;;;2.50;2.30;;;16.00;69.50;;;;;;5094564;28;20461;-64
2022/12/26 06:22:08;;;;;;;2.27;2.07;;;16.00;69.60;;;;;;5091228;28;20580;-65
2022/12/26 06:24:35;;;;;;;3.33;2.50;;;16.10;69.50;;;;;;5082573;28;20451;-66
2022/12/26 06:27:02;;;;;;;2.50;2.30;;;16.20;69.30;;;;;;5083788;28;20800;-66
2022/12/26 06:29:29;;;;;;;3.23;2.60;;;16.20;69.70;;;;;;5075026;28;20854;-66
2022/12/26 06:31:56;;;;;;;2.60;2.40;;;16.20;69.10;;;;;;5092105;28;20553;-66
2022/12/26 06:34:23;;;;;;;3.47;2.13;;;16.20;69.10;;;;;;5083687;28;20453;-65
2022/12/26 06:36:50;;;;;;;2.73;2.40;;;16.20;69.20;;;;;;5081873;28;20486;-65
2022/12/26 06:39:18;;;;;;;4.30;2.57;;;16.10;69.30;;;;;;5091824;28;20451;-66
2022/12/26 06:41:45;;;;;;;4.00;2.67;;;16.20;69.60;;;;;;5087991;28;20549;-66
2022/12/26 06:44:12;;;;;;;3.30;2.40;;;16.20;69.70;;;;;;5084582;28;20471;-66
2022/12/26 06:46:39;;;;;;;3.27;2.73;;;16.10;70.10;;;;;;5079797;28;20484;-66
2022/12/26 06:49:06;;;;;;;4.10;2.77;;;16.00;71.60;;;;;;5092183;28;20446;-67
2022/12/26 06:51:34;;;;;;;3.13;2.57;;;15.90;72.60;;;;;;5091676;28;20455;-66
2022/12/26 06:54:02;;;;;;;4.43;3.17;;;16.00;73.40;;;;;;5089557;28;20797;-66
2022/12/26 06:56:32;;;;;;;3.37;2.80;;;15.90;74.00;;;;;;5077839;28;20854;-66
2022/12/26 06:59:01;;;;;;;2.97;2.70;;;15.90;75.10;;;;;;5092223;28;20534;-66
2022/12/26 07:01:29;;;;;;;3.90;2.97;;;15.80;75.40;;;;;;5080576;28;20529;-66
2022/12/26 07:03:56;;;;;;;3.30;3.00;;;15.70;75.50;;;;;;5076353;28;20537;-66
2022/12/26 07:06:26;;;;;;;3.70;2.77;;;15.70;76.10;;;;;;5091060;28;20485;-65
2022/12/26 07:08:54;;;;;;;4.17;3.00;;;15.80;76.40;;;;;;5092353;28;20453;-66
2022/12/26 07:11:23;;;;;;;3.43;2.90;;;15.80;76.40;;;;;;5091426;28;20490;-66
2022/12/26 07:13:53;;;;;;;3.27;2.97;;;15.70;76.70;;;;;;5090615;28;20529;-66
2022/12/26 07:16:20;;;;;;;3.40;2.80;;;15.60;77.00;;;;;;5091343;28;20461;-66
2022/12/26 07:18:47;;;;;;;3.43;3.10;;;15.50;77.10;;;;;;5088224;28;20493;-66
2022/12/26 07:21:15;;;;;;;3.17;2.90;;;15.50;77.30;;;;;;5095773;28;20454;-66
2022/12/26 07:23:42;;;;;;;4.37;3.07;;;15.50;77.40;;;;;;5078079;28;21006;-66
2022/12/26 07:26:09;;;;;;;4.47;3.30;;;15.60;78.00;;;;;;5092856;28;20878;-66
2022/12/26 07:28:36;;;;;;;2.87;2.63;;;15.60;77.30;;;;;;5095120;28;20944;-66
2022/12/26 07:31:05;;;;;;;3.50;3.10;;;15.60;77.30;;;;;;5095703;28;20488;-66
2022/12/26 07:33:33;;;;;;;3.23;2.70;;;15.40;77.80;;;;;;5094747;28;20538;-66
2022/12/26 07:36:00;;;;;;;3.20;2.90;;;15.40;78.10;;;;;;5086842;28;20481;-65
2022/12/26 07:38:27;;;;;;;4.53;2.90;;;15.50;78.80;;;;;;5094606;28;20553;-66
2022/12/26 07:40:56;;;;;;;3.77;3.40;;;15.40;78.60;;;;;;5096235;28;20455;-66
2022/12/26 07:43:23;;;;;;;3.57;3.27;;;15.30;79.50;;;;;;5094964;28;20450;-66
2022/12/26 07:45:50;;;;;;;3.77;3.10;;;15.30;79.80;;;;;;5078492;28;20581;-66
2022/12/26 07:48:19;;;;;;;4.27;3.30;;;15.30;80.40;;;;;;5094773;28;20523;-66
2022/12/26 07:50:48;;;;;;;4.07;2.90;;;15.20;81.10;;;;;;5082214;28;20534;-66
2022/12/26 07:53:15;;;;;;;3.73;3.30;;;15.20;81.90;;;;;;5039907;28;20435;-66
2022/12/26 07:55:42;;;;;;;5.40;3.47;;;15.20;81.90;;;;;;5093563;28;20778;-66
2022/12/26 07:58:09;;;;;;;5.13;3.33;;;15.20;82.60;;;;;;5095163;28;20529;-66
2022/12/26 08:00:36;;;;;;;4.37;3.40;;;15.20;82.90;;;;;;5094234;28;20557;-66
2022/12/26 08:03:04;;;;;;;3.83;2.93;;;15.20;83.10;;;;;;5077931;28;20520;-66
2022/12/26 08:05:32;;;;;;;3.43;3.13;;;15.20;83.50;;;;;;5093758;28;20481;-66
2022/12/26 08:07:59;;;;;;;5.53;3.33;;;15.30;83.90;;;;;;5095372;28;20446;-66
2022/12/26 08:10:26;;;;;;;3.80;3.50;;;15.20;84.40;;;;;;5094098;28;20546;-66
2022/12/26 08:12:52;;;;;;;4.13;3.20;;;15.30;84.30;;;;;;5094665;28;20450;-66
2022/12/26 08:15:19;;;;;;;4.23;3.60;;;15.30;84.30;;;;;;5084487;28;20871;-66
2022/12/26 08:17:48;;;;;;;5.03;3.43;;;15.20;85.50;;;;;;5094397;28;20482;-66
2022/12/26 08:20:15;;;;;;;3.93;3.53;;;15.10;86.30;;;;;;5095250;28;20863;-66
2022/12/26 08:22:43;;;;;;;3.63;3.03;;;15.00;87.70;;;;;;5094639;28;20451;-66
2022/12/26 08:25:10;;;;;;;3.40;3.10;;;14.90;88.90;;;;;;5097998;28;20514;-66
2022/12/26 08:27:37;;;;;;;4.00;2.90;;;14.80;89.70;;;;;;5096091;28;20474;-66
2022/12/26 08:30:05;;;;;;;4.47;2.97;;;14.70;90.20;;;;;;5093579;28;20923;-66
2022/12/26 08:32:32;;;;;;;3.57;3.17;;;14.80;90.50;;;;;;5072763;28;20919;-67
2022/12/26 08:34:59;;;;;;;3.03;2.80;;;14.80;90.50;;;;;;5090568;28;21019;-66
2022/12/26 08:37:25;;;;;;;3.70;2.97;;;14.80;90.70;;;;;;5087486;28;20477;-66
2022/12/26 08:39:54;;;;;;;3.93;3.27;;;14.80;90.70;;;;;;5094395;28;20530;-66
2022/12/26 08:42:21;;;;;;;3.90;3.50;;;14.90;91.00;;;;;;5093890;28;20507;-66
2022/12/26 08:44:48;;;;;;;4.10;3.47;;;14.90;91.30;;;;;;5093562;28;20956;-66
2022/12/26 08:47:16;;;;;;;3.70;3.40;;;14.90;91.20;;;;;;5083809;28;20520;-66
2022/12/26 08:49:43;;;;;;;3.67;3.13;;;14.90;91.50;;;;;;5094164;28;20522;-66
2022/12/26 08:52:10;;;;;;;4.20;3.60;;;15.00;91.60;;;;;;5094839;28;20446;-66
2022/12/26 08:54:37;;;;;;;4.27;3.87;;;14.90;92.20;;;;;;5092483;28;21008;-66
2022/12/26 08:57:05;;;;;;;4.17;3.40;;;14.80;92.50;;;;;;5093742;28;20474;-66
2022/12/26 08:59:32;;;;;;;4.93;3.77;;;14.80;92.70;;;;;;5094080;28;20591;-66
2022/12/26 09:01:59;;;;;;;4.43;3.70;;;14.90;92.60;;;;;;5094225;28;20537;-66
2022/12/26 09:04:26;;;;;;;4.03;3.40;;;14.90;92.80;;;;;;5093898;28;20534;-66
2022/12/26 09:06:52;;;;;;;3.97;3.13;;;14.90;92.40;;;;;;5086842;28;20926;-67
2022/12/26 09:09:19;;;;;;;4.93;3.40;;;14.90;92.40;;;;;;5093727;28;20453;-66
2022/12/26 09:11:46;;;;;;;3.40;3.10;;;14.90;92.70;;;;;;5094193;28;20486;-66
2022/12/26 09:14:14;;;;;;;3.63;3.30;;;14.90;92.30;;;;;;5075327;28;20543;-67
2022/12/26 09:16:45;;;;;;;3.90;2.90;;;14.90;92.20;;;;;;5084116;28;20459;-67
2022/12/26 09:19:15;;;;;;;3.90;3.30;;;14.90;92.30;;;;;;5094186;28;20463;-67
2022/12/26 09:21:43;;;;;;;4.23;3.10;;;15.00;92.30;;;;;;5093481;28;20484;-67
2022/12/26 09:24:13;;;;;;;3.17;2.87;;;15.10;91.90;;;;;;5091347;28;20459;-67
2022/12/26 09:26:40;;;;;;;3.20;2.90;;;15.20;91.40;;;;;;5081779;28;20448;-66
2022/12/26 09:29:07;;;;;;;3.00;2.70;;;15.20;91.20;;;;;;5073328;28;20451;-66
2022/12/26 09:31:36;;;;;;;3.40;2.87;;;15.30;91.00;;;;;;5072769;28;20928;-66
2022/12/26 09:34:04;;;;;;;5.17;3.10;;;15.30;90.90;;;;;;5081720;28;20448;-66
2022/12/26 09:36:32;;;;;;;3.43;2.70;;;15.20;91.00;;;;;;5089272;28;20550;-66
2022/12/26 09:39:00;;;;;;;2.83;2.50;;;15.10;91.30;;;;;;5090506;28;20482;-66
2022/12/26 09:41:50;;;;;;;3.30;2.60;;;15.00;91.40;;;;;;5072417;28;20940;-66
2022/12/26 09:44:22;;;;;;;3.73;2.73;;;15.00;92.00;;;;;;5082995;28;20443;-65
2022/12/26 09:47:03;;;;;;;4.00;2.73;;;15.10;91.80;;;;;;5092807;28;20912;-66
2022/12/26 09:49:33;;;;;;;3.97;2.97;;;15.20;91.70;;;;;;5089378;28;20448;-67
2022/12/26 09:52:05;;;;;;;2.67;2.47;;;15.20;91.20;;;;;;5073953;28;20465;-72
2022/12/26 09:54:35;;;;;;;2.97;2.40;;;15.30;91.10;;;;;;5081494;28;20533;-72
2022/12/26 09:57:06;;;;;;;2.87;2.40;;;15.20;90.90;;;;;;5075786;28;20540;-72
2022/12/26 09:59:44;;;;;;;3.13;2.50;;;15.20;91.00;;;;;;5071989;28;20472;-72
2022/12/26 10:02:17;;;;;;;3.33;2.50;;;15.20;91.10;;;;;;5072831;28;20436;-72
2022/12/26 10:04:44;;;;;;;2.53;2.30;;;15.20;91.00;;;;;;5085443;28;20449;-72
2022/12/26 10:07:25;;;;;;;4.00;2.70;;;15.20;90.80;;;;;;5084318;28;20485;-73
2022/12/26 10:09:59;;;;;;;3.50;3.10;;;15.30;91.00;;;;;;5093080;28;20459;-72
2022/12/26 10:12:38;;;;;;;2.60;2.40;;;15.30;90.90;;;;;;5092185;28;20895;-72
2022/12/26 10:15:23;;;;;;;2.93;2.63;;;15.40;90.90;;;;;;5092290;28;20442;-73
2022/12/26 10:17:57;;;;;;;3.47;3.00;;;15.40;90.90;;;;;;5073768;28;20444;-72
2022/12/26 10:20:35;;;;;;;3.17;2.90;;;15.40;90.70;;;;;;5083540;28;21013;-72
2022/12/26 10:23:20;;;;;;;3.90;3.30;;;15.50;90.80;;;;;;5092037;28;20525;-72
2022/12/26 10:25:51;;;;;;;4.70;3.53;;;15.40;91.20;;;;;;5091150;28;20450;-72
2022/12/26 10:28:25;;;;;;;4.53;4.13;;;15.40;91.20;;;;;;5092579;28;20431;-72
2022/12/26 10:30:55;;;;;;;6.10;5.30;;;15.40;91.40;;;;;;5092290;28;20444;-72
2022/12/26 10:33:35;;;;;;;5.60;5.03;;;15.40;91.40;;;;;;5092781;28;20834;-72
2022/12/26 10:36:03;;;;;;;6.27;4.93;;;15.40;91.80;;;;;;5085388;28;20497;-72
2022/12/26 10:38:36;;;;;;;9.30;7.37;;;15.40;91.60;;;;;;5088725;28;20487;-72
2022/12/26 10:41:09;;;;;;;4.30;3.90;;;15.30;91.60;;;;;;5091931;28;20485;-72
2022/12/26 10:43:43;;;;;;;9.57;8.03;;;15.50;91.60;;;;;;5086802;28;20448;-72
2022/12/26 10:47:01;;;;;;;5.27;4.60;;;15.40;91.50;;;;;;5082477;28;20563;-72
2022/12/26 10:49:29;;;;;;;4.87;4.37;;;15.40;91.70;;;;;;5084992;28;20435;-72
2022/12/26 10:52:00;;;;;;;4.40;3.33;;;15.40;91.30;;;;;;5084180;28;20956;-72
2022/12/26 10:54:32;;;;;;;5.07;3.63;;;15.50;91.50;;;;;;5089892;28;20434;-72
2022/12/26 10:57:00;;;;;;;3.47;3.17;;;15.40;91.40;;;;;;5089909;28;20438;-72
2022/12/26 10:59:38;;;;;;;3.83;3.33;;;15.40;91.40;;;;;;5091142;28;20478;-72
2022/12/26 11:02:15;;;;;;;4.00;3.20;;;15.50;91.50;;;;;;5092395;28;20491;-72
2022/12/26 11:04:59;;;;;;;4.30;3.20;;;15.40;91.70;;;;;;5084945;28;20545;-72
2022/12/26 11:07:27;;;;;;;3.83;3.20;;;15.40;91.80;;;;;;5078450;28;20481;-72
2022/12/26 11:09:55;;;;;;;4.47;3.50;;;15.50;91.80;;;;;;5090857;28;20529;-72
2022/12/26 11:12:27;;;;;;;3.83;3.37;;;15.50;91.50;;;;;;5098358;28;20498;-72
2022/12/26 11:14:59;;;;;;;3.50;3.20;;;15.40;91.60;;;;;;5104535;28;20439;-72
2022/12/26 11:17:29;;;;;;;4.87;3.10;;;15.40;91.50;;;;;;5107095;28;20449;-71
2022/12/26 11:20:27;;;;;;;4.13;3.30;;;15.30;91.50;;;;;;5091800;28;20470;-72
2022/12/26 11:22:55;;;;;;;3.97;3.57;;;15.30;91.80;;;;;;5091534;28;20443;-72
2022/12/26 11:25:26;;;;;;;3.33;2.93;;;15.40;91.50;;;;;;5090572;28;20458;-70
2022/12/26 11:27:55;;;;;;;3.30;3.00;;;15.50;91.20;;;;;;5091271;28;20435;-72
2022/12/26 11:30:30;;;;;;;3.60;2.60;;;15.50;91.00;;;;;;5091241;28;20457;-72
2022/12/26 11:33:11;;;;;;;2.80;2.60;;;15.50;90.70;;;;;;5092342;28;20458;-72
2022/12/26 11:35:49;;;;;;;2.60;2.40;;;15.50;90.30;;;;;;5080118;28;20445;-72
2022/12/26 11:43:47;;;;;;;2.83;2.10;;;15.30;89.40;;;;;;5091371;28;20501;-72
2022/12/26 11:46:15;;;;;;;2.13;1.93;;;15.30;90.20;;;;;;5091327;28;20489;-72
2022/12/26 11:48:46;;;;;;;3.23;2.13;;;15.30;89.90;;;;;;5094425;28;20457;-72
2022/12/26 11:51:14;;;;;;;2.53;2.33;;;15.30;89.60;;;;;;5102187;28;20933;-72
2022/12/26 11:53:41;;;;;;;2.33;2.10;;;15.30;89.10;;;;;;5090865;28;20534;-72
2022/12/26 11:56:10;;;;;;;2.10;1.90;;;15.20;88.60;;;;;;5090284;28;20457;-72
2022/12/26 11:58:37;;;;;;;2.20;2.00;;;15.30;88.70;;;;;;5096029;28;20489;-72
2022/12/26 12:01:16;;;;;;;3.53;2.50;;;15.30;88.20;;;;;;5092777;28;20488;-71
2022/12/26 12:03:44;;;;;;;2.50;2.30;;;15.30;88.10;;;;;;5089077;28;20462;-73
2022/12/26 12:06:36;;;;;;;3.63;2.00;;;15.30;87.90;;;;;;5088025;28;20462;-74
2022/12/26 12:09:13;;;;;;;1.83;1.70;;;15.30;87.30;;;;;;5081334;28;20434;-74
2022/12/26 12:11:49;;;;;;;1.90;1.57;;;15.20;86.90;;;;;;5082916;28;20455;-75
2022/12/26 12:14:31;;;;;;;2.13;1.50;;;15.30;87.50;;;;;;5090826;28;20538;-75
2022/12/26 12:17:07;;;;;;;1.83;1.63;;;15.40;86.60;;;;;;5057428;28;20462;-75
2022/12/26 12:20:00;;;;;;;2.00;1.50;;;15.30;86.00;;;;;;5094446;28;20473;-75
2022/12/26 12:22:55;;;;;;;1.50;1.40;;;15.40;85.80;;;;;;5090443;28;20456;-74
2022/12/26 12:25:55;;;;;;;1.50;1.40;;;15.40;85.20;;;;;;5100120;28;20463;-74
2022/12/26 12:28:41;;;;;;;1.57;1.47;;;15.40;84.70;;;;;;5063330;28;20496;-75
2022/12/26 12:31:17;;;;;;;1.33;1.23;;;15.30;84.80;;;;;;5094790;28;20514;-76
2022/12/26 12:34:01;;;;;;;1.47;1.37;;;15.30;84.80;;;;;;5094012;28;20522;-75
2022/12/26 12:36:34;;;;;;;1.50;1.40;;;15.30;84.30;;;;;;5094781;28;20439;-75
2022/12/26 12:39:10;;;;;;;2.37;1.70;;;15.40;83.80;;;;;;5093886;28;20553;-75
2022/12/26 12:41:56;;;;;;;2.07;1.87;;;15.40;83.40;;;;;;5089128;28;20529;-74
2022/12/26 12:44:30;;;;;;;2.63;2.43;;;15.40;83.60;;;;;;5094218;28;20557;-75
2022/12/26 12:47:04;;;;;;;2.13;1.40;;;15.40;83.60;;;;;;5094370;28;20525;-74
2022/12/26 12:49:47;;;;;;;1.90;1.70;;;15.40;84.10;;;;;;5088406;28;20463;-74
2022/12/26 12:52:28;;;;;;;1.70;1.37;;;15.30;84.70;;;;;;5094309;28;20442;-75
2022/12/26 12:55:16;;;;;;;1.63;1.53;;;15.10;86.00;;;;;;5094295;28;20828;-75
2022/12/26 12:57:46;;;;;;;2.30;1.43;;;15.10;87.20;;;;;;5093896;28;20435;-75
2022/12/26 13:00:18;;;;;;;1.53;1.43;;;15.10;87.20;;;;;;5091983;28;20486;-75
2022/12/26 13:02:53;;;;;;;1.87;1.60;;;15.10;87.20;;;;;;5092464;28;20484;-75
2022/12/26 13:05:30;;;;;;;2.73;1.70;;;15.10;87.00;;;;;;5093943;28;20533;-75
2022/12/26 13:08:02;;;;;;;2.70;2.50;;;15.10;86.70;;;;;;5088701;28;20483;-74
2022/12/26 13:10:33;;;;;;;1.80;1.70;;;15.20;86.50;;;;;;5091810;28;20443;-74
2022/12/26 13:13:10;;;;;;;1.70;1.60;;;15.20;86.40;;;;;;5094022;28;20484;-73
2022/12/26 13:15:42;;;;;;;1.50;1.40;;;15.10;85.90;;;;;;5092944;28;20456;-76
2022/12/26 13:18:15;;;;;;;2.03;1.83;;;15.20;85.90;;;;;;5093200;28;20446;-75
2022/12/26 13:20:46;;;;;;;1.70;1.60;;;15.10;85.80;;;;;;5093533;28;20467;-75
2022/12/26 13:26:10;;;;;;;1.60;1.50;;;15.20;85.60;;;;;;5089807;28;20787;-75
2022/12/26 13:28:48;;;;;;;1.50;1.40;;;15.20;85.20;;;;;;5092768;28;20466;-75
2022/12/26 13:31:15;;;;;;;2.00;1.30;;;15.10;85.40;;;;;;5093376;28;20441;-75
2022/12/26 13:33:43;;;;;;;1.70;1.60;;;15.10;86.10;;;;;;5093290;28;21003;-75
2022/12/26 13:36:10;;;;;;;2.27;1.50;;;15.10;86.70;;;;;;5087409;28;20469;-75
2022/12/26 13:39:25;;;;;;;1.67;1.30;;;15.10;86.40;;;;;;5082691;28;20462;-75
2022/12/26 13:44:40;;;;;;;2.13;1.70;;;15.00;87.50;;;;;;5079477;28;20447;-75
2022/12/26 13:47:32;;;;;;;2.97;1.80;;;14.90;87.60;;;;;;5072664;28;20589;-74
2022/12/26 13:50:19;;;;;;;1.77;1.67;;;14.70;90.10;;;;;;5076888;28;20964;-75
2022/12/26 13:52:46;;;;;;;1.80;1.70;;;14.70;89.80;;;;;;5076512;28;20451;-73
2022/12/26 13:55:43;;;;;;;1.80;1.60;;;14.70;90.20;;;;;;5072764;28;20447;-75
2022/12/26 13:58:52;;;;;;;2.27;2.00;;;14.60;90.40;;;;;;5072529;28;22296;-75
2022/12/26 14:01:34;;;;;;;1.93;1.70;;;14.60;90.60;;;;;;5050871;28;20455;-75
2022/12/26 14:04:23;;;;;;;2.03;1.83;;;14.60;90.70;;;;;;5093028;28;21037;-74
2022/12/26 14:07:15;;;;;;;2.87;1.90;;;14.70;90.60;;;;;;5089869;28;20516;-74
2022/12/26 14:10:02;;;;;;;2.50;2.10;;;14.80;90.60;;;;;;5088227;28;20442;-75
2022/12/26 14:12:50;;;;;;;2.83;2.00;;;14.80;90.80;;;;;;5092796;28;20447;-73
2022/12/26 14:15:31;;;;;;;2.43;2.20;;;14.80;90.50;;;;;;5092858;28;20549;-74
2022/12/26 14:18:15;;;;;;;2.33;2.00;;;14.80;90.70;;;;;;5074997;28;20446;-74
2022/12/26 14:20:47;;;;;;;2.43;2.23;;;14.80;90.60;;;;;;5087235;28;20550;-70
2022/12/26 14:23:39;;;;;;;2.80;1.90;;;14.80;90.60;;;;;;5090639;28;20450;-71
2022/12/26 14:26:20;;;;;;;2.90;1.90;;;14.70;90.70;;;;;;5085386;28;20450;-72
2022/12/26 14:28:58;;;;;;;2.93;2.00;;;14.80;90.90;;;;;;5085190;28;20447;-72
2022/12/26 14:31:35;;;;;;;1.97;1.77;;;14.80;90.50;;;;;;5072004;28;20455;-69
2022/12/26 14:34:14;;;;;;;2.00;1.70;;;14.80;90.50;;;;;;5078321;28;20566;-70
2022/12/26 14:36:47;;;;;;;2.87;2.27;;;14.90;90.60;;;;;;5079032;28;20478;-69
2022/12/26 14:39:27;;;;;;;2.30;2.10;;;14.90;91.00;;;;;;5077175;28;20471;-70
2022/12/26 14:45:09;;;;;;;2.30;2.10;;;14.80;91.60;;;;;;5076979;28;20479;-70
2022/12/26 14:47:41;;;;;;;2.77;2.40;;;14.70;91.50;;;;;;5090870;28;21154;-70
2022/12/26 14:50:36;;;;;;;2.37;2.13;;;14.60;92.30;;;;;;5085897;28;20500;-70
2022/12/26 14:53:32;;;;;;;3.00;2.40;;;14.50;93.20;;;;;;5090624;28;20533;-70
2022/12/26 14:56:01;;;;;;;2.83;2.63;;;14.50;93.20;;;;;;5076465;28;20787;-70
2022/12/26 14:58:42;;;;;;;3.27;2.20;;;14.50;93.20;;;;;;5091754;28;20439;-70
2022/12/26 15:01:43;;;;;;;2.00;1.90;;;14.50;93.20;;;;;;5091307;28;20494;-70
2022/12/26 15:04:27;;;;;;;3.63;1.80;;;14.50;93.20;;;;;;5089497;28;20873;-70
2022/12/26 15:07:13;;;;;;;3.47;1.90;;;14.50;92.90;;;;;;5091318;28;20442;-70
2022/12/26 15:10:08;;;;;;;1.70;1.60;;;14.50;92.90;;;;;;5090726;28;20948;-70
2022/12/26 15:13:09;;;;;;;2.03;1.73;;;14.50;92.50;;;;;;5091624;28;20476;-69
2022/12/26 15:15:49;;;;;;;2.00;1.90;;;14.50;92.50;;;;;;5074850;28;20490;-70
2022/12/26 15:18:51;;;;;;;2.87;1.60;;;14.50;92.20;;;;;;5090632;28;20481;-70
2022/12/26 15:22:03;;;;;;;3.13;1.50;;;14.60;91.90;;;;;;5091730;28;20477;-70
2022/12/26 15:24:55;;;;;;;2.10;1.90;;;14.60;91.80;;;;;;5058687;28;20532;-70
2022/12/26 15:27:51;;;;;;;2.77;2.07;;;14.60;91.50;;;;;;5090773;28;20985;-69
2022/12/26 15:30:21;;;;;;;1.77;1.50;;;14.70;91.70;;;;;;5091598;28;20807;-69
2022/12/26 15:32:58;;;;;;;2.00;1.70;;;14.80;91.50;;;;;;5087755;28;20458;-69
2022/12/26 15:35:32;;;;;;;3.70;3.40;;;14.80;91.20;;;;;;5083704;28;20483;-70